createdAt,value
2023-01-07T00:01:18.756Z,85.06
2023-01-07T00:04:21.487Z,84.90
2023-01-07T00:07:24.525Z,84.71
2023-01-07T00:10:28.567Z,84.82
2023-01-07T00:13:31.376Z,84.78
2023-01-07T00:16:36.342Z,84.57
2023-01-07T00:19:39.040Z,84.56
2023-01-07T00:22:41.686Z,84.36
2023-01-07T00:25:45.689Z,84.47
2023-01-07T00:28:49.985Z,84.63
2023-01-07T00:31:53.710Z,84.32
2023-01-07T00:34:59.510Z,84.41
2023-01-07T00:38:02.164Z,84.63
2023-01-07T00:41:10.947Z,84.79
2023-01-07T00:44:13.583Z,84.70
2023-01-07T00:47:16.240Z,84.80
2023-01-07T00:50:19.034Z,84.81
2023-01-07T00:53:25.111Z,84.78
2023-01-07T00:56:33.567Z,84.83
2023-01-07T00:59:37.159Z,84.78
2023-01-07T01:02:40.345Z,84.71
2023-01-07T01:05:43.336Z,84.68
2023-01-07T01:08:48.081Z,85.04
2023-01-07T01:11:52.063Z,84.84
2023-01-07T01:14:54.770Z,84.88
2023-01-07T01:17:57.491Z,85.14
2023-01-07T01:21:05.233Z,85.06
2023-01-07T01:24:08.207Z,85.23
2023-01-07T01:27:12.232Z,84.97
2023-01-07T01:30:14.957Z,84.80
2023-01-07T01:33:20.726Z,85.02
2023-01-07T01:36:24.186Z,85.03
2023-01-07T01:39:26.912Z,84.79
2023-01-07T01:42:31.984Z,84.28
2023-01-07T01:45:35.132Z,84.75
2023-01-07T01:48:42.326Z,84.67
2023-01-07T01:51:50.485Z,85.12
2023-01-07T01:54:57.976Z,85.11
2023-01-07T01:58:04.954Z,85.30
2023-01-07T02:01:07.771Z,85.25
2023-01-07T02:04:13.076Z,85.42
2023-01-07T02:07:17.651Z,85.40
2023-01-07T02:10:22.260Z,85.74
2023-01-07T02:13:43.343Z,85.75
2023-01-07T02:16:51.668Z,85.56
2023-01-07T02:20:32.563Z,85.59
2023-01-07T02:24:10.205Z,85.81
2023-01-07T02:27:22.605Z,85.49
2023-01-07T02:31:07.173Z,85.87
2023-01-07T02:34:21.677Z,85.84
2023-01-07T02:37:33.324Z,85.59
2023-01-07T02:40:43.547Z,85.63
2023-01-07T02:43:54.781Z,85.84
2023-01-07T02:47:05.060Z,85.67
2023-01-07T02:50:09.991Z,86.03
2023-01-07T02:53:18.108Z,85.75
2023-01-07T02:56:33.784Z,86.15
2023-01-07T03:00:04.503Z,85.95
2023-01-07T03:03:30.764Z,85.82
2023-01-07T03:06:54.444Z,85.88
2023-01-07T03:10:03.712Z,85.98
2023-01-07T03:13:17.638Z,86.14
2023-01-07T03:16:26.691Z,86.19
2023-01-07T03:19:33.139Z,86.23
2023-01-07T03:22:39.682Z,86.17
2023-01-07T03:25:45.936Z,86.23
2023-01-07T03:28:51.452Z,86.23
2023-01-07T03:32:01.231Z,86.27
2023-01-07T03:35:06.682Z,86.45
2023-01-07T03:38:11.865Z,86.05
2023-01-07T03:41:35.382Z,86.53
2023-01-07T03:44:38.113Z,86.42
2023-01-07T03:47:44.772Z,86.97
2023-01-07T03:50:47.412Z,87.55
2023-01-07T03:53:51.427Z,87.92
2023-01-07T03:57:00.148Z,87.49
2023-01-07T04:00:03.833Z,87.91
2023-01-07T04:03:06.498Z,88.30
2023-01-07T04:06:09.304Z,88.57
2023-01-07T04:09:18.748Z,88.84
2023-01-07T04:12:21.487Z,89.19
2023-01-07T04:15:30.236Z,89.00
2023-01-07T04:18:32.993Z,89.38
2023-01-07T04:21:38.712Z,89.21
2023-01-07T04:24:42.760Z,90.09
2023-01-07T04:27:45.469Z,90.33
2023-01-07T04:30:48.196Z,90.76
2023-01-07T04:34:01.896Z,90.87
2023-01-07T04:37:04.595Z,91.15
2023-01-07T04:40:10.320Z,91.63
2023-01-07T04:43:12.984Z,92.30
2023-01-07T04:46:15.741Z,92.44
2023-01-07T04:49:18.760Z,92.47
2023-01-07T04:52:24.260Z,92.43
2023-01-07T04:55:28.285Z,92.95
2023-01-07T04:58:30.955Z,92.96
2023-01-07T05:01:33.762Z,92.92
2023-01-07T05:04:36.501Z,93.20
2023-01-07T05:07:39.161Z,92.94
2023-01-07T05:10:43.183Z,93.37
2023-01-07T05:13:45.852Z,93.88
2023-01-07T05:16:48.622Z,94.12
2023-01-07T05:19:51.325Z,94.38
2023-01-07T05:22:54.199Z,94.51
2023-01-07T05:25:58.441Z,94.72
2023-01-07T05:29:01.897Z,95.03
2023-01-07T05:32:05.287Z,94.96
2023-01-07T05:35:08.649Z,94.89
2023-01-07T05:38:11.318Z,95.17
2023-01-07T05:41:15.357Z,94.90
2023-01-07T05:44:20.602Z,95.33
2023-01-07T05:47:35.547Z,95.61
2023-01-07T05:50:38.245Z,95.37
2023-01-07T05:53:40.991Z,95.91
2023-01-07T05:56:45.066Z,95.81
2023-01-07T05:59:47.814Z,96.12
2023-01-07T06:02:50.623Z,95.87
2023-01-07T06:06:02.903Z,95.93
2023-01-07T06:09:06.021Z,96.25
2023-01-07T06:12:10.170Z,96.58
2023-01-07T06:15:12.877Z,96.68
2023-01-07T06:18:15.581Z,97.09
2023-01-07T06:21:18.317Z,96.95
2023-01-07T06:24:21.074Z,97.12
2023-01-07T06:27:25.087Z,97.01
2023-01-07T06:30:27.819Z,97.19
2023-01-07T06:33:32.090Z,96.95
2023-01-07T06:36:36.157Z,97.05
2023-01-07T06:39:41.889Z,96.85
2023-01-07T06:42:46.324Z,97.30
2023-01-07T06:45:49.022Z,97.33
2023-01-07T06:48:51.628Z,96.77
2023-01-07T06:52:01.680Z,97.09
2023-01-07T06:55:10.675Z,97.17
2023-01-07T06:58:14.638Z,97.25
2023-01-07T07:01:17.503Z,97.42
2023-01-07T07:04:20.440Z,97.48
2023-01-07T07:07:30.520Z,97.80
2023-01-07T07:10:33.270Z,97.70
2023-01-07T07:13:39.976Z,97.72
2023-01-07T07:16:42.675Z,97.99
2023-01-07T07:19:45.371Z,98.54
2023-01-07T07:22:49.330Z,98.55
2023-01-07T07:25:52.123Z,98.15
2023-01-07T07:28:56.091Z,98.10
2023-01-07T07:31:58.942Z,98.06
2023-01-07T07:35:01.750Z,98.22
2023-01-07T07:38:04.365Z,97.29
2023-01-07T07:41:07.952Z,97.26
2023-01-07T07:44:12.305Z,97.25
2023-01-07T07:47:14.999Z,97.44
2023-01-07T07:50:20.757Z,97.64
2023-01-07T07:53:23.516Z,97.03
2023-01-07T07:56:26.230Z,97.40
2023-01-07T07:59:30.316Z,97.43
2023-01-07T08:02:33.522Z,97.31
2023-01-07T08:05:36.275Z,97.46
2023-01-07T08:08:39.005Z,97.41
2023-01-07T08:11:41.660Z,97.29
2023-01-07T08:14:45.681Z,97.45
2023-01-07T08:17:48.407Z,97.43
2023-01-07T08:20:51.452Z,97.53
2023-01-07T08:23:54.123Z,97.56
2023-01-07T08:26:56.816Z,97.10
2023-01-07T08:30:01.829Z,96.75
2023-01-07T08:33:05.768Z,97.20
2023-01-07T08:36:22.112Z,97.09
2023-01-07T08:39:25.821Z,96.76
2023-01-07T08:42:29.990Z,96.73
2023-01-07T08:45:34.395Z,96.83
2023-01-07T08:48:40.764Z,97.09
2023-01-07T08:51:43.410Z,96.68
2023-01-07T08:54:48.065Z,96.24
2023-01-07T08:57:51.424Z,96.28
2023-01-07T09:00:56.086Z,96.02
2023-01-07T09:03:58.843Z,95.53
2023-01-07T09:07:01.774Z,95.29
2023-01-07T09:10:08.318Z,94.56
2023-01-07T09:13:11.109Z,94.56
2023-01-07T09:16:15.327Z,93.87
2023-01-07T09:19:18.565Z,94.28
2023-01-07T09:22:21.333Z,94.28
2023-01-07T09:25:25.329Z,94.35
2023-01-07T09:28:28.051Z,94.21
2023-01-07T09:31:32.375Z,94.39
2023-01-07T09:34:35.133Z,93.73
2023-01-07T09:37:38.649Z,93.99
2023-01-07T09:40:44.009Z,94.00
2023-01-07T09:43:59.690Z,92.94
2023-01-07T09:47:07.425Z,92.65
2023-01-07T09:50:17.720Z,92.50
2023-01-07T09:53:25.905Z,91.77
2023-01-07T09:56:30.491Z,91.14
2023-01-07T09:59:35.808Z,91.01
2023-01-07T10:02:46.822Z,90.63
2023-01-07T10:06:02.033Z,90.57
2023-01-07T10:09:14.880Z,89.97
2023-01-07T10:12:23.469Z,89.37
2023-01-07T10:15:56.157Z,89.60
2023-01-07T10:19:10.713Z,89.05
2023-01-07T10:22:21.806Z,89.00
2023-01-07T10:25:29.737Z,88.59
2023-01-07T10:28:38.486Z,87.66
2023-01-07T10:31:42.055Z,87.28
2023-01-07T10:34:51.862Z,86.33
2023-01-07T10:37:59.025Z,85.13
2023-01-07T10:41:07.888Z,85.03
2023-01-07T10:44:42.397Z,85.48
2023-01-07T10:48:08.670Z,84.50
2023-01-07T10:51:33.116Z,84.25
2023-01-07T10:54:59.154Z,83.86
2023-01-07T10:58:03.515Z,82.37
2023-01-07T11:01:07.433Z,81.64
2023-01-07T11:04:14.355Z,81.53
2023-01-07T11:07:29.389Z,80.75
2023-01-07T11:10:35.403Z,80.58
2023-01-07T11:13:42.095Z,80.21
2023-01-07T11:16:50.644Z,80.56
2023-01-07T11:19:53.429Z,80.24
2023-01-07T11:22:58.908Z,79.81
2023-01-07T11:26:18.110Z,79.38
2023-01-07T11:29:25.709Z,78.86
2023-01-07T11:32:31.228Z,78.66
2023-01-07T11:35:34.334Z,77.42
2023-01-07T11:38:39.724Z,76.16
2023-01-07T11:41:53.916Z,75.13
2023-01-07T11:45:10.481Z,75.84
2023-01-07T11:48:25.993Z,75.32
2023-01-07T11:51:40.305Z,74.97
2023-01-07T11:54:50.481Z,74.88
2023-01-07T11:58:28.567Z,74.36
2023-01-07T12:01:21.283Z,73.42
2023-01-07T12:04:27.172Z,73.62
2023-01-07T12:07:29.978Z,73.25
2023-01-07T12:10:36.605Z,73.34
2023-01-07T12:13:50.625Z,73.67
2023-01-07T12:16:54.805Z,72.88
2023-01-07T12:20:26.977Z,73.17
2023-01-07T12:23:36.162Z,72.05
2023-01-07T12:26:47.811Z,72.00
2023-01-07T12:30:05.407Z,72.72
2023-01-07T12:33:19.172Z,72.85
2023-01-07T12:36:30.807Z,71.82
2023-01-07T12:39:36.563Z,71.94
2023-01-07T12:42:44.444Z,72.24
2023-01-07T12:45:52.785Z,71.53
2023-01-07T12:49:04.852Z,71.09
2023-01-07T12:52:14.058Z,71.38
2023-01-07T12:55:21.356Z,71.80
2023-01-07T12:58:38.239Z,71.08
2023-01-07T13:01:47.984Z,70.70
2023-01-07T13:05:00.981Z,70.78
2023-01-07T13:08:13.809Z,71.00
2023-01-07T13:11:43.072Z,70.70
2023-01-07T13:14:51.849Z,70.84
2023-01-07T13:17:56.001Z,70.78
2023-01-07T13:21:08.177Z,70.92
2023-01-07T13:24:55.790Z,70.58
2023-01-07T13:28:13.549Z,70.85
2023-01-07T13:31:34.070Z,70.16
2023-01-07T13:34:49.442Z,70.26
2023-01-07T13:38:10.209Z,70.62
2023-01-07T13:41:28.097Z,70.74
2023-01-07T13:44:59.217Z,71.19
2023-01-07T13:48:21.407Z,71.02
2023-01-07T13:51:29.444Z,71.09
2023-01-07T13:55:00.523Z,71.25
2023-01-07T13:58:03.877Z,70.99
2023-01-07T14:01:11.103Z,71.40
2023-01-07T14:04:47.845Z,71.24
2023-01-07T14:07:54.118Z,70.90
2023-01-07T14:10:56.818Z,70.94
2023-01-07T14:14:08.685Z,71.47
2023-01-07T14:17:20.976Z,71.13
2023-01-07T14:20:32.814Z,71.54
2023-01-07T14:23:45.310Z,71.93
2023-01-07T14:26:59.983Z,72.51
2023-01-07T14:30:21.386Z,72.24
2023-01-07T14:33:26.088Z,72.04
2023-01-07T14:37:14.883Z,72.84
2023-01-07T14:41:03.336Z,72.86
2023-01-07T14:44:30.463Z,72.96
2023-01-07T14:47:54.213Z,73.22
2023-01-07T14:51:12.679Z,73.03
2023-01-07T14:54:34.640Z,73.25
2023-01-07T14:57:46.479Z,73.10
2023-01-07T15:01:10.739Z,73.14
2023-01-07T15:04:55.562Z,73.11
2023-01-07T15:08:18.352Z,73.35
2023-01-07T15:11:46.362Z,73.94
2023-01-07T15:15:14.971Z,73.94
2023-01-07T15:18:17.657Z,74.60
2023-01-07T15:21:32.150Z,74.61
2023-01-07T15:24:46.623Z,74.91
2023-01-07T15:27:59.697Z,75.55
2023-01-07T15:31:13.482Z,76.04
2023-01-07T15:34:21.002Z,76.22
2023-01-07T15:37:23.709Z,77.04
2023-01-07T15:40:28.102Z,77.28
2023-01-07T15:43:32.757Z,77.34
2023-01-07T15:46:41.343Z,77.88
2023-01-07T15:49:49.060Z,77.83
2023-01-07T15:52:53.426Z,78.33
2023-01-07T15:56:00.532Z,78.79
2023-01-07T15:59:10.006Z,78.83
2023-01-07T16:02:25.513Z,79.71
2023-01-07T16:05:28.496Z,79.80
2023-01-07T16:08:33.856Z,80.05
2023-01-07T16:11:36.677Z,80.27
2023-01-07T16:14:40.723Z,80.77
2023-01-07T16:17:51.235Z,80.91
2023-01-07T16:20:58.316Z,81.16
2023-01-07T16:24:01.100Z,81.41
2023-01-07T16:27:05.941Z,81.78
2023-01-07T16:30:16.145Z,82.02
2023-01-07T16:33:29.118Z,82.36
2023-01-07T16:36:33.377Z,82.81
2023-01-07T16:39:44.349Z,82.66
2023-01-07T16:42:49.072Z,82.59
2023-01-07T16:46:09.842Z,83.07
2023-01-07T16:49:22.306Z,83.06
2023-01-07T16:52:30.825Z,83.48
2023-01-07T16:55:48.001Z,83.77
2023-01-07T16:58:53.613Z,84.33
2023-01-07T17:02:03.340Z,84.39
2023-01-07T17:05:18.985Z,84.71
2023-01-07T17:08:22.349Z,84.73
2023-01-07T17:11:32.666Z,85.43
2023-01-07T17:14:46.491Z,85.85
2023-01-07T17:17:50.645Z,85.93
2023-01-07T17:20:56.808Z,86.47
2023-01-07T17:23:59.695Z,86.81
2023-01-07T17:27:05.913Z,86.86
2023-01-07T17:30:15.789Z,87.18
2023-01-07T17:33:21.851Z,87.50
2023-01-07T17:36:28.002Z,87.64
2023-01-07T17:39:32.049Z,87.99
2023-01-07T17:42:52.273Z,88.66
2023-01-07T17:45:55.633Z,88.38
2023-01-07T17:49:00.939Z,88.75
2023-01-07T17:52:03.794Z,89.00
2023-01-07T17:55:07.091Z,89.19
2023-01-07T17:58:25.471Z,89.11
2023-01-07T18:01:28.485Z,89.28
2023-01-07T18:04:32.612Z,89.40
2023-01-07T18:07:36.387Z,89.71
2023-01-07T18:10:53.364Z,89.88
2023-01-07T18:13:58.246Z,90.91
2023-01-07T18:17:00.997Z,90.86
2023-01-07T18:20:05.754Z,90.73
2023-01-07T18:23:10.258Z,90.92
2023-01-07T18:26:13.925Z,91.14
2023-01-07T18:29:23.918Z,91.18
2023-01-07T18:32:26.752Z,90.97
2023-01-07T18:35:31.012Z,91.42
2023-01-07T18:38:41.019Z,91.82
2023-01-07T18:41:43.730Z,91.36
2023-01-07T18:44:46.496Z,91.15
2023-01-07T18:47:49.505Z,91.55
2023-01-07T18:50:54.120Z,91.54
2023-01-07T18:53:56.838Z,92.21
2023-01-07T18:57:02.823Z,92.60
2023-01-07T19:00:06.976Z,92.78
2023-01-07T19:03:14.147Z,92.96
2023-01-07T19:06:18.345Z,92.26
2023-01-07T19:09:27.004Z,92.60
2023-01-07T19:12:32.453Z,92.96
2023-01-07T19:15:35.211Z,92.95
2023-01-07T19:18:38.048Z,92.77
2023-01-07T19:21:42.698Z,92.73
2023-01-07T19:24:46.480Z,92.64
2023-01-07T19:27:49.194Z,92.40
2023-01-07T19:30:53.475Z,92.14
2023-01-07T19:34:01.153Z,92.44
2023-01-07T19:37:05.247Z,92.59
2023-01-07T19:40:09.017Z,92.30
2023-01-07T19:43:13.438Z,92.51
2023-01-07T19:46:20.101Z,92.42
2023-01-07T19:49:23.495Z,92.78
2023-01-07T19:52:30.678Z,92.88
2023-01-07T19:55:33.939Z,93.23
2023-01-07T19:58:37.394Z,93.00
2023-01-07T20:01:40.458Z,92.90
2023-01-07T20:04:43.575Z,93.18
2023-01-07T20:07:48.029Z,93.34
2023-01-07T20:10:56.758Z,92.98
2023-01-07T20:14:00.583Z,93.09
2023-01-07T20:17:03.707Z,92.93
2023-01-07T20:20:08.398Z,93.15
2023-01-07T20:23:12.943Z,93.42
2023-01-07T20:26:19.222Z,93.41
2023-01-07T20:29:22.163Z,93.53
2023-01-07T20:32:26.502Z,93.69
2023-01-07T20:35:29.366Z,94.23
2023-01-07T20:38:33.869Z,94.46
2023-01-07T20:41:38.693Z,94.93
2023-01-07T20:44:41.948Z,94.75
2023-01-07T20:47:44.997Z,94.73
2023-01-07T20:50:47.840Z,94.84
2023-01-07T20:53:52.293Z,94.83
2023-01-07T20:56:54.994Z,95.18
2023-01-07T20:59:57.993Z,95.11
2023-01-07T21:03:00.783Z,94.83
2023-01-07T21:06:04.330Z,95.02
2023-01-07T21:09:08.940Z,95.60
2023-01-07T21:12:14.808Z,95.42
2023-01-07T21:15:18.201Z,95.47
2023-01-07T21:18:21.370Z,96.02
2023-01-07T21:21:25.675Z,96.63
2023-01-07T21:24:29.708Z,96.65
2023-01-07T21:27:32.954Z,96.76
2023-01-07T21:30:35.688Z,96.59
2023-01-07T21:33:39.771Z,96.04
2023-01-07T21:36:42.983Z,95.99
2023-01-07T21:39:47.176Z,95.75
2023-01-07T21:42:52.694Z,96.02
2023-01-07T21:45:55.927Z,95.48
2023-01-07T21:48:58.918Z,95.22
2023-01-07T21:52:02.080Z,95.16
2023-01-07T21:55:07.091Z,95.95
2023-01-07T21:58:09.750Z,96.11
2023-01-07T22:01:13.633Z,96.34
2023-01-07T22:04:16.593Z,96.56
2023-01-07T22:07:20.501Z,95.66
2023-01-07T22:10:24.547Z,95.65
2023-01-07T22:13:36.327Z,95.79
2023-01-07T22:16:39.392Z,94.56
2023-01-07T22:19:42.057Z,95.00
2023-01-07T22:22:44.762Z,95.07
2023-01-07T22:25:51.901Z,95.10
2023-01-07T22:28:57.349Z,96.26
2023-01-07T22:32:05.479Z,96.39
2023-01-07T22:35:10.598Z,95.63
2023-01-07T22:38:15.553Z,95.44
2023-01-07T22:41:35.153Z,96.07
2023-01-07T22:44:43.411Z,96.19
2023-01-07T22:47:50.959Z,96.64
2023-01-07T22:50:57.506Z,96.58
2023-01-07T22:54:01.888Z,96.25
2023-01-07T22:57:11.864Z,96.59
2023-01-07T23:00:18.423Z,97.43
2023-01-07T23:03:26.520Z,97.91
2023-01-07T23:06:29.201Z,97.90
2023-01-07T23:09:35.367Z,97.33
2023-01-07T23:12:39.380Z,96.47
2023-01-07T23:15:42.517Z,95.75
2023-01-07T23:18:47.520Z,95.97
2023-01-07T23:21:53.214Z,96.87
2023-01-07T23:24:55.887Z,97.08
2023-01-07T23:27:59.960Z,97.10
2023-01-07T23:31:03.292Z,96.10
2023-01-07T23:34:06.407Z,95.81
2023-01-07T23:37:12.371Z,95.29
2023-01-07T23:40:18.177Z,94.58
2023-01-07T23:43:24.869Z,94.06
2023-01-07T23:46:27.600Z,94.36
2023-01-07T23:49:31.834Z,94.56
2023-01-07T23:52:36.816Z,95.37
2023-01-07T23:55:39.561Z,95.64
2023-01-07T23:58:43.640Z,95.45
